Time;durP1;ratioP1;P1;durP2;ratioP2;P2;SDS_P1;SDS_P2;PMS_P1;PMS_P2;Temp;Humidity;BMP_temperature;BMP_pressure;BME280_temperature;BME280_humidity;BME280_pressure;Samples;Min_cycle;Max_cycle;Signal;HPM_P1;HPM_P2
2022/08/22 00:01:54;;;;;;;9.35;6.22;;;;;;;17.94;100.00;92490.84;5029723;28;20049;-75
2022/08/22 00:04:31;;;;;;;9.40;6.03;;;;;;;17.65;100.00;92491.59;5029845;28;20045;-75
2022/08/22 00:07:05;;;;;;;8.05;6.18;;;;;;;17.65;100.00;92492.41;5029767;28;20048;-75
2022/08/22 00:09:43;;;;;;;9.75;6.63;;;;;;;17.75;100.00;92502.72;5029727;28;20469;-75
2022/08/22 00:12:18;;;;;;;9.45;6.60;;;;;;;17.94;100.00;92506.44;5029212;28;20045;-75
2022/08/22 00:14:51;;;;;;;9.48;7.18;;;;;;;17.92;100.00;92475.56;5029684;28;20092;-75
2022/08/22 00:17:34;;;;;;;8.10;6.63;;;;;;;18.18;100.00;92496.13;5029416;28;20454;-75
2022/08/22 00:20:08;;;;;;;8.40;6.60;;;;;;;18.13;100.00;92485.78;5028754;28;20521;-75
2022/08/22 00:22:42;;;;;;;7.72;6.22;;;;;;;18.36;100.00;92496.47;5029565;28;20056;-75
2022/08/22 00:25:35;;;;;;;10.75;5.95;;;;;;;18.45;100.00;92500.03;5029375;28;20046;-75
2022/08/22 00:28:07;;;;;;;7.70;5.85;;;;;;;18.51;100.00;92492.97;5029233;28;20046;-75
2022/08/22 00:30:49;;;;;;;10.70;5.72;;;;;;;18.52;100.00;92490.06;5029572;28;20042;-75
2022/08/22 00:33:25;;;;;;;7.95;5.82;;;;;;;18.58;100.00;92484.81;5029319;28;20049;-75
2022/08/22 00:36:02;;;;;;;7.85;5.47;;;;;;;18.61;100.00;92486.88;5028992;28;20049;-75
2022/08/22 00:38:35;;;;;;;8.77;5.35;;;;;;;18.63;100.00;92487.38;5029314;28;20132;-75
2022/08/22 00:41:07;;;;;;;8.10;5.72;;;;;;;18.66;100.00;92484.97;5029462;28;20509;-74
2022/08/22 00:43:54;;;;;;;7.72;5.53;;;;;;;18.69;100.00;92488.84;5031464;28;20052;-75
2022/08/22 00:46:47;;;;;;;7.10;5.47;;;;;;;18.72;100.00;92482.31;5029020;28;20081;-75
2022/08/22 00:49:42;;;;;;;7.80;5.97;;;;;;;18.76;100.00;92483.31;5029027;28;20052;-75
2022/08/22 00:52:27;;;;;;;;;;;;;;;18.76;100.00;92476.31;5029182;28;20089;-75
2022/08/22 00:55:18;;;;;;;8.05;5.63;;;;;;;18.75;100.00;92474.72;5028686;28;20333;-75
2022/08/22 00:58:08;;;;;;;6.95;5.32;;;;;;;18.66;100.00;92479.03;5008290;28;20104;-75
2022/08/22 01:00:42;;;;;;;7.57;5.10;;;;;;;18.70;100.00;92487.81;5028948;28;20120;-74
2022/08/22 01:03:34;;;;;;;7.05;4.95;;;;;;;18.70;100.00;92485.19;5028458;28;20060;-74
2022/08/22 01:06:18;;;;;;;7.22;5.43;;;;;;;18.70;100.00;92478.19;5028856;28;20089;-75
2022/08/22 01:09:03;;;;;;;7.47;5.43;;;;;;;18.69;100.00;92481.06;5028850;28;20498;-75
2022/08/22 01:11:52;;;;;;;8.50;5.78;;;;;;;18.57;100.00;92463.25;5028402;28;20306;-75
2022/08/22 01:14:32;;;;;;;7.97;6.22;;;;;;;18.63;100.00;92477.75;5028427;28;20041;-75
2022/08/22 01:17:47;;;;;;;7.63;5.13;;;;;;;18.56;100.00;92474.69;5028632;28;20038;-75
2022/08/22 01:20:39;;;;;;;6.65;5.72;;;;;;;18.55;100.00;92479.13;4968542;28;20046;-75
2022/08/22 01:23:42;;;;;;;8.85;5.72;;;;;;;18.45;100.00;92474.03;4967148;28;20051;-75
2022/08/22 01:26:44;;;;;;;7.20;5.50;;;;;;;18.46;100.00;92478.19;5019576;28;20046;-75
2022/08/22 01:30:07;;;;;;;8.30;6.30;;;;;;;18.43;100.00;92481.34;5005461;28;20108;-75
2022/08/22 01:33:03;;;;;;;9.65;6.97;;;;;;;18.38;100.00;92476.97;5029790;28;20485;-75
2022/08/22 01:35:59;;;;;;;8.57;6.32;;;;;;;18.31;100.00;92473.91;5032331;28;20584;-75
2022/08/22 01:38:50;;;;;;;8.68;6.72;;;;;;;18.32;100.00;92480.66;5032739;28;20656;-75
2022/08/22 01:41:52;;;;;;;8.38;6.22;;;;;;;18.28;100.00;92484.84;5032565;28;20116;-75
2022/08/22 01:44:44;;;;;;;7.82;5.95;;;;;;;18.23;100.00;92485.69;5034470;28;20050;-75
2022/08/22 01:47:15;;;;;;;9.95;6.45;;;;;;;18.19;100.00;92489.13;5032415;28;20132;-74
2022/08/22 01:49:46;;;;;;;12.45;6.78;;;;;;;18.13;100.00;92476.19;5032147;28;20042;-74
2022/08/22 01:52:18;;;;;;;10.35;6.88;;;;;;;18.09;100.00;92480.38;5032422;28;20052;-73
2022/08/22 01:54:54;;;;;;;10.25;7.13;;;;;;;18.09;100.00;92484.81;5032420;28;20042;-73
2022/08/22 01:57:22;;;;;;;9.25;6.70;;;;;;;18.06;100.00;92474.91;5031934;28;20045;-73
2022/08/22 01:59:51;;;;;;;10.23;7.53;;;;;;;18.02;100.00;92474.69;5032162;28;20453;-73
2022/08/22 02:02:43;;;;;;;10.18;7.65;;;;;;;17.99;100.00;92481.22;5031859;28;20085;-73
2022/08/22 02:05:22;;;;;;;11.43;8.70;;;;;;;17.92;100.00;92479.97;5031766;28;20096;-73
2022/08/22 02:07:58;;;;;;;13.82;9.38;;;;;;;17.89;100.00;92481.28;5031689;28;20045;-73
2022/08/22 02:10:41;;;;;;;12.57;8.88;;;;;;;17.90;100.00;92481.03;5031724;28;20048;-73
2022/08/22 02:13:24;;;;;;;11.90;8.60;;;;;;;17.87;100.00;92478.97;5031630;28;20049;-73
2022/08/22 02:16:06;;;;;;;13.18;9.30;;;;;;;17.83;100.00;92485.75;5031854;28;20049;-73
2022/08/22 02:18:46;;;;;;;11.60;8.93;;;;;;;17.77;100.00;92476.44;5031573;28;20656;-73
2022/08/22 02:21:20;;;;;;;11.68;8.07;;;;;;;17.78;100.00;92483.22;5031605;28;20498;-73
2022/08/22 02:23:55;;;;;;;9.88;7.45;;;;;;;17.70;100.00;92481.97;5031433;28;21668;-73
2022/08/22 02:26:26;;;;;;;13.05;7.57;;;;;;;17.73;100.00;92489.19;5031686;28;20064;-74
2022/08/22 02:28:59;;;;;;;11.38;6.88;;;;;;;17.72;100.00;92486.88;5031816;28;20394;-73
2022/08/22 02:31:38;;;;;;;9.57;7.03;;;;;;;17.69;100.00;92480.41;5031653;28;20039;-73
2022/08/22 02:34:24;;;;;;;9.18;7.03;;;;;;;17.63;100.00;92486.69;5031707;28;20045;-73
2022/08/22 02:36:56;;;;;;;9.65;6.85;;;;;;;17.56;100.00;92488.81;5031595;28;20556;-73
2022/08/22 02:39:33;;;;;;;9.02;7.10;;;;;;;17.50;100.00;92481.06;5031287;28;20049;-73
2022/08/22 02:42:14;;;;;;;8.50;6.65;;;;;;;17.48;100.00;92484.97;5031377;28;20049;-73
2022/08/22 02:44:52;;;;;;;9.18;6.72;;;;;;;17.42;100.00;92481.66;5032935;28;20045;-73
2022/08/22 02:47:29;;;;;;;8.60;6.30;;;;;;;17.40;100.00;92481.13;5031318;28;20092;-73
2022/08/22 02:50:06;;;;;;;8.60;6.10;;;;;;;17.41;100.00;92487.88;5031371;28;20041;-73
2022/08/22 02:52:45;;;;;;;9.05;6.07;;;;;;;17.41;100.00;92493.06;5031318;28;20045;-72
2022/08/22 02:55:18;;;;;;;9.95;6.78;;;;;;;17.03;100.00;92452.03;5031042;28;20053;-73
2022/08/22 02:57:53;;;;;;;13.77;7.05;;;;;;;17.30;100.00;92494.16;5031115;28;20042;-73
2022/08/22 03:00:26;;;;;;;11.38;6.90;;;;;;;17.21;100.00;92494.75;5031053;28;20045;-73
2022/08/22 03:03:03;;;;;;;9.48;7.13;;;;;;;17.17;100.00;92493.72;5031099;28;20045;-73
2022/08/22 03:05:45;;;;;;;8.35;6.78;;;;;;;17.13;100.00;92494.53;5030883;28;20058;-73
2022/08/22 03:08:21;;;;;;;9.18;6.63;;;;;;;17.10;100.00;92493.25;5031588;28;20053;-74
2022/08/22 03:10:59;;;;;;;10.13;6.45;;;;;;;17.11;100.00;92492.19;5031043;28;20041;-74
2022/08/22 03:13:33;;;;;;;12.25;6.50;;;;;;;17.08;100.00;92490.91;5030697;28;20046;-74
2022/08/22 03:16:06;;;;;;;9.05;6.57;;;;;;;17.13;100.00;92497.88;5030459;28;20120;-75
2022/08/22 03:18:44;;;;;;;12.07;6.35;;;;;;;17.08;100.00;92500.53;5030794;28;20111;-74
2022/08/22 03:21:16;;;;;;;9.00;6.60;;;;;;;17.04;100.00;92489.13;5031024;28;20100;-75
2022/08/22 03:23:47;;;;;;;8.48;6.43;;;;;;;17.08;100.00;92500.53;5030423;28;20497;-73
2022/08/22 03:26:24;;;;;;;8.27;6.15;;;;;;;17.10;100.00;92506.22;5030409;28;20053;-74
2022/08/22 03:28:56;;;;;;;9.45;7.05;;;;;;;17.08;100.00;92501.28;5030545;28;20041;-73
2022/08/22 03:31:25;;;;;;;11.70;8.15;;;;;;;17.05;100.00;92506.25;5030511;28;20097;-73
2022/08/22 03:34:19;;;;;;;9.70;7.32;;;;;;;17.03;100.00;92506.50;5030248;28;20097;-73
2022/08/22 03:36:48;;;;;;;9.35;7.55;;;;;;;16.96;100.00;92501.56;5030562;28;20052;-73
2022/08/22 03:39:19;;;;;;;13.25;9.93;;;;;;;16.94;100.00;92495.88;5049233;28;20049;-73
2022/08/22 03:42:12;;;;;;;12.70;8.80;;;;;;;17.05;100.00;92498.47;5050656;28;20139;-73
2022/08/22 03:45:10;;;;;;;16.95;10.52;;;;;;;16.92;100.00;92466.06;5044119;28;20100;-73
2022/08/22 03:48:01;;;;;;;12.00;8.32;;;;;;;17.13;100.00;92492.69;5050421;28;20410;-73
2022/08/22 03:51:00;;;;;;;12.23;7.38;;;;;;;17.13;100.00;92499.72;5050096;28;20511;-73
2022/08/22 03:53:56;;;;;;;12.48;7.72;;;;;;;17.11;100.00;92492.19;5050435;28;20139;-73
2022/08/22 03:57:05;;;;;;;13.10;8.50;;;;;;;17.11;100.00;92487.00;5049467;28;20674;-73
2022/08/22 04:00:08;;;;;;;10.75;7.65;;;;;;;17.16;100.00;92491.38;5050146;28;20140;-73
2022/08/22 04:03:11;;;;;;;13.77;9.40;;;;;;;17.23;100.00;92497.06;5050441;28;20045;-73
2022/08/22 04:06:18;;;;;;;16.70;9.05;;;;;;;17.28;100.00;92493.66;5042212;28;20091;-73
2022/08/22 04:09:17;;;;;;;10.45;7.80;;;;;;;17.27;100.00;92492.13;5032812;28;20052;-73
2022/08/22 04:12:22;;;;;;;15.07;8.55;;;;;;;17.37;100.00;92497.25;5024554;28;20044;-73
2022/08/22 04:15:03;;;;;;;;;;;;;;;17.43;100.00;92495.38;5050547;28;20111;-73
2022/08/22 04:17:56;;;;;;;12.95;8.80;;;;;;;17.35;100.00;92487.13;5049878;28;20347;-73
2022/08/22 04:20:57;;;;;;;18.13;10.02;;;;;;;17.46;100.00;92500.81;5044670;28;20052;-73
2022/08/22 04:23:39;;;;;;;15.75;9.80;;;;;;;17.52;100.00;92498.97;5041614;28;20048;-73
2022/08/22 04:26:10;;;;;;;20.92;13.68;;;;;;;17.54;100.00;92502.06;5049713;28;20053;-73
2022/08/22 04:28:42;;;;;;;21.10;14.77;;;;;;;17.54;100.00;92499.47;5049865;28;20059;-73
2022/08/22 04:31:12;;;;;;;76.28;39.90;;;;;;;17.57;100.00;92493.75;5049365;28;20049;-73
2022/08/22 04:33:46;;;;;;;46.90;26.40;;;;;;;17.55;100.00;92495.06;5049641;28;20048;-73
2022/08/22 04:36:19;;;;;;;28.90;17.88;;;;;;;17.56;100.00;92483.63;5049733;28;20049;-73
2022/08/22 04:38:53;;;;;;;21.60;14.27;;;;;;;17.64;100.00;92490.84;5049588;28;20049;-73
2022/08/22 04:41:24;;;;;;;87.63;45.08;;;;;;;17.60;100.00;92489.84;5049695;28;20166;-73
2022/08/22 04:43:57;;;;;;;55.08;32.35;;;;;;;17.63;100.00;92491.88;5049620;28;20436;-73
2022/08/22 04:46:38;;;;;;;54.20;31.98;;;;;;;17.60;100.00;92493.19;5049185;28;20080;-73
2022/08/22 04:49:12;;;;;;;83.57;43.78;;;;;;;17.65;100.00;92497.59;5049610;28;20057;-73
2022/08/22 04:51:45;;;;;;;108.53;53.97;;;;;;;17.63;100.00;92499.66;5049341;28;20045;-73
2022/08/22 04:54:24;;;;;;;154.90;78.68;;;;;;;17.68;100.00;92499.63;5049350;28;20452;-73
2022/08/22 04:57:06;;;;;;;44.75;24.30;;;;;;;17.79;100.00;92504.75;5049414;28;20091;-73
2022/08/22 04:59:34;;;;;;;35.78;21.23;;;;;;;17.77;100.00;92505.81;5049007;28;20103;-73
2022/08/22 05:02:05;;;;;;;150.05;76.80;;;;;;;17.80;100.00;92504.50;5049181;28;20053;-73
2022/08/22 05:04:38;;;;;;;27.45;17.35;;;;;;;17.80;100.00;92509.69;5048992;28;20080;-73
2022/08/22 05:07:10;;;;;;;33.90;20.15;;;;;;;17.85;100.00;92511.44;5049033;28;20045;-73
2022/08/22 05:09:41;;;;;;;29.95;18.10;;;;;;;17.91;100.00;92502.56;5049019;28;20052;-73
2022/08/22 05:12:13;;;;;;;22.23;13.85;;;;;;;18.00;100.00;92513.94;5048449;28;20131;-73
2022/08/22 05:14:44;;;;;;;22.42;13.80;;;;;;;18.07;100.00;92521.47;5048973;28;20049;-73
2022/08/22 05:17:31;;;;;;;21.65;14.77;;;;;;;18.11;100.00;92522.47;5048883;28;20049;-73
2022/08/22 05:20:03;;;;;;;19.50;13.85;;;;;;;18.03;100.00;92517.81;5049019;28;20115;-73
2022/08/22 05:22:35;;;;;;;18.48;13.50;;;;;;;17.73;100.00;92512.59;5048671;28;20045;-73
2022/08/22 05:25:06;;;;;;;18.73;12.65;;;;;;;17.79;100.00;92518.53;5049200;28;20056;-73
2022/08/22 05:27:39;;;;;;;20.60;14.05;;;;;;;17.79;100.00;92521.13;5048702;28;20053;-73
2022/08/22 05:30:11;;;;;;;20.27;14.18;;;;;;;17.58;100.00;92497.09;5044593;28;20051;-73
2022/08/22 05:32:49;;;;;;;20.95;13.73;;;;;;;17.62;100.00;92517.09;5047248;28;20056;-73
2022/08/22 05:35:19;;;;;;;19.48;13.88;;;;;;;17.67;100.00;92513.66;5048898;28;20049;-73
2022/08/22 05:37:49;;;;;;;19.67;13.73;;;;;;;17.84;100.00;92526.28;5048566;28;20045;-73
2022/08/22 05:40:26;;;;;;;20.48;14.07;;;;;;;17.90;100.00;92527.00;5048748;28;20095;-73
2022/08/22 05:42:55;;;;;;;22.23;14.05;;;;;;;17.97;100.00;92532.66;5048885;28;20040;-73
2022/08/22 05:45:22;;;;;;;17.92;13.15;;;;;;;17.89;100.00;92520.25;5048477;28;20045;-73
2022/08/22 05:47:52;;;;;;;19.48;13.85;;;;;;;17.86;100.00;92534.56;5048637;28;20053;-73
2022/08/22 05:50:27;;;;;;;20.50;13.13;;;;;;;17.86;100.00;92544.19;5048335;28;20041;-73
2022/08/22 05:53:05;;;;;;;22.88;14.20;;;;;;;17.87;100.00;92533.53;5048896;28;20096;-73
2022/08/22 05:55:37;;;;;;;18.40;13.05;;;;;;;18.02;100.00;92550.81;5048602;28;20378;-73
2022/08/22 05:58:19;;;;;;;21.45;13.88;;;;;;;18.11;100.00;92555.47;5048441;28;20048;-73
2022/08/22 06:00:48;;;;;;;19.85;13.88;;;;;;;18.17;100.00;92556.97;5035318;28;20045;-73
2022/08/22 06:03:21;;;;;;;19.30;14.00;;;;;;;18.13;100.00;92555.97;5049357;28;20053;-73
2022/08/22 06:05:52;;;;;;;21.45;13.38;;;;;;;18.17;100.00;92556.97;5048422;28;20095;-73
2022/08/22 06:08:24;;;;;;;20.63;13.77;;;;;;;18.23;100.00;92557.72;5048525;28;20041;-73
2022/08/22 06:10:55;;;;;;;17.98;12.57;;;;;;;18.35;100.00;92562.53;5048300;28;20044;-73
2022/08/22 06:13:30;;;;;;;18.70;12.93;;;;;;;18.48;100.00;92564.50;5048394;28;20049;-73
2022/08/22 06:16:07;;;;;;;20.25;13.05;;;;;;;18.45;100.00;92553.84;5048227;28;20984;-73
2022/08/22 06:18:37;;;;;;;22.23;12.38;;;;;;;18.62;100.00;92556.84;5049925;28;20049;-73
2022/08/22 06:21:09;;;;;;;16.35;11.30;;;;;;;18.75;100.00;92562.44;5052249;28;20049;-73
2022/08/22 06:23:40;;;;;;;18.98;12.25;;;;;;;18.85;100.00;92570.13;5052030;28;20091;-73
2022/08/22 06:26:10;;;;;;;22.90;12.05;;;;;;;18.95;100.00;92574.44;5052075;28;20111;-73
2022/08/22 06:28:40;;;;;;;18.75;12.52;;;;;;;18.95;100.00;92571.84;5052268;28;20691;-73
2022/08/22 06:31:11;;;;;;;22.48;12.55;;;;;;;18.98;100.00;92567.91;5051486;28;20520;-73
2022/08/22 06:33:39;;;;;;;18.95;11.75;;;;;;;19.09;100.00;92574.56;5051814;28;20095;-73
2022/08/22 06:36:32;;;;;;;15.38;11.02;;;;;;;19.16;100.00;92580.22;5051743;28;20049;-73
2022/08/22 06:39:18;;;;;;;14.65;10.70;;;;;;;19.33;100.00;92574.56;5051745;28;20509;-73
2022/08/22 06:41:52;;;;;;;15.93;10.75;;;;;;;19.42;100.00;92569.50;5051801;28;20045;-73
2022/08/22 06:44:24;;;;;;;13.00;9.68;;;;;;;19.58;100.00;92566.69;5051854;28;20051;-74
2022/08/22 06:46:54;;;;;;;16.95;9.32;;;;;;;19.49;100.00;92569.91;5051223;28;20045;-74
2022/08/22 06:49:23;;;;;;;13.25;9.75;;;;;;;19.63;100.00;92575.19;5051529;28;20045;-74
2022/08/22 06:52:10;;;;;;;12.30;9.10;;;;;;;19.84;100.00;92585.34;5051526;28;20072;-74
2022/08/22 06:54:43;;;;;;;12.50;8.90;;;;;;;19.94;100.00;92581.81;5051420;28;20049;-73
2022/08/22 06:57:14;;;;;;;14.23;9.93;;;;;;;20.09;100.00;92583.44;5051037;28;20591;-74
2022/08/22 06:59:43;;;;;;;12.80;9.07;;;;;;;20.15;100.00;92587.50;5051703;28;20037;-74
2022/08/22 07:02:20;;;;;;;12.02;7.20;;;;;;;19.29;100.00;92578.75;5051034;28;20049;-75
2022/08/22 07:04:48;;;;;;;12.63;8.85;;;;;;;19.63;100.00;92574.44;5051150;28;20049;-74
2022/08/22 07:07:18;;;;;;;12.40;8.80;;;;;;;19.70;100.00;92574.84;5051014;28;20412;-74
2022/08/22 07:09:50;;;;;;;14.40;9.07;;;;;;;20.10;100.00;92566.75;5051362;28;20049;-74
2022/08/22 07:12:20;;;;;;;14.15;9.15;;;;;;;20.66;100.00;92586.97;5051328;28;20131;-74
2022/08/22 07:14:50;;;;;;;11.15;8.20;;;;;;;20.99;100.00;92597.38;5050970;28;20053;-74
2022/08/22 07:17:22;;;;;;;11.02;7.97;;;;;;;21.16;100.00;92578.50;5051297;28;20052;-74
2022/08/22 07:19:58;;;;;;;11.65;7.90;;;;;;;20.57;100.00;92602.50;5051227;28;20045;-74
2022/08/22 07:22:29;;;;;;;11.13;8.90;;;;;;;20.63;100.00;92593.53;5051221;28;20045;-74
2022/08/22 07:25:01;;;;;;;10.95;8.40;;;;;;;19.93;100.00;92572.44;5051294;28;20128;-74
2022/08/22 07:27:43;;;;;;;10.25;8.00;;;;;;;19.79;100.00;92600.25;5050534;28;20099;-74
2022/08/22 07:30:12;;;;;;;13.43;8.88;;;;;;;19.57;100.00;92591.94;5049713;28;20049;-75
2022/08/22 07:32:49;;;;;;;13.00;9.02;;;;;;;19.84;100.00;92605.41;5050644;28;20056;-74
2022/08/22 07:35:20;;;;;;;11.05;8.30;;;;;;;20.02;100.00;92594.25;5050792;28;20053;-74
2022/08/22 07:37:56;;;;;;;11.05;8.13;;;;;;;20.20;100.00;92601.53;5050436;28;20099;-74
2022/08/22 07:40:31;;;;;;;12.35;8.80;;;;;;;20.52;100.00;92603.38;5050803;28;20053;-74
2022/08/22 07:43:05;;;;;;;12.27;8.80;;;;;;;20.61;100.00;92598.28;5050516;28;20548;-74
2022/08/22 07:45:37;;;;;;;12.10;8.38;;;;;;;20.19;100.00;92600.78;5031466;28;20934;-74
2022/08/22 07:48:14;;;;;;;10.77;8.65;;;;;;;20.12;100.00;92608.94;5030421;28;20061;-74
2022/08/22 07:50:51;;;;;;;9.60;7.55;;;;;;;19.61;100.00;92602.59;5029873;28;20048;-74
2022/08/22 07:53:25;;;;;;;12.02;8.95;;;;;;;19.76;100.00;92604.19;5030139;28;20077;-74
2022/08/22 07:55:54;;;;;;;12.43;8.30;;;;;;;19.95;100.00;92598.22;5029948;28;20045;-74
2022/08/22 07:58:23;;;;;;;9.30;6.65;;;;;;;20.07;100.00;92606.41;5030058;28;20111;-74
2022/08/22 08:00:51;;;;;;;11.52;8.10;;;;;;;20.37;100.00;92601.03;5029463;28;20041;-74
2022/08/22 08:03:21;;;;;;;10.77;8.27;;;;;;;20.70;100.00;92595.78;5032724;28;20445;-74
2022/08/22 08:05:49;;;;;;;10.93;7.78;;;;;;;20.96;100.00;92605.78;5030082;28;20049;-74
2022/08/22 08:08:24;;;;;;;11.40;7.55;;;;;;;21.16;100.00;92615.06;5030070;28;20539;-74
2022/08/22 08:10:54;;;;;;;10.48;7.85;;;;;;;21.46;100.00;92617.38;5029912;28;20104;-74
2022/08/22 08:13:29;;;;;;;8.32;6.05;;;;;;;21.72;100.00;92611.66;5029835;28;20093;-74
2022/08/22 08:15:57;;;;;;;11.02;6.82;;;;;;;21.56;100.00;92619.03;5029726;28;20045;-74
2022/08/22 08:18:27;;;;;;;11.35;6.68;;;;;;;21.54;100.00;92610.69;5029745;28;20063;-74
2022/08/22 08:20:57;;;;;;;11.00;7.45;;;;;;;21.94;100.00;92603.06;5029352;28;20092;-74
2022/08/22 08:23:30;;;;;;;9.63;6.85;;;;;;;22.11;100.00;92612.13;5029692;28;20413;-74
2022/08/22 08:26:05;;;;;;;9.15;6.05;;;;;;;22.31;100.00;92605.63;5029172;28;20049;-74
2022/08/22 08:28:35;;;;;;;12.82;7.20;;;;;;;22.10;100.00;92621.03;5029300;28;20045;-74
2022/08/22 08:31:08;;;;;;;10.75;6.00;;;;;;;21.98;100.00;92605.88;5029047;28;20042;-74
2022/08/22 08:33:38;;;;;;;8.90;6.03;;;;;;;21.92;100.00;92604.44;5029065;28;20656;-74
2022/08/22 08:36:24;;;;;;;9.88;6.97;;;;;;;22.14;100.00;92612.28;5029343;28;20132;-74
2022/08/22 08:38:57;;;;;;;8.90;6.15;;;;;;;22.63;100.00;92614.31;5029084;28;20405;-74
2022/08/22 08:41:46;;;;;;;10.40;6.20;;;;;;;22.92;100.00;92610.47;5028563;28;20137;-74
2022/08/22 08:44:34;;;;;;;8.88;6.18;;;;;;;23.17;100.00;92610.09;5031173;28;20045;-74
2022/08/22 08:47:22;;;;;;;8.40;6.20;;;;;;;23.24;100.00;92618.31;5028675;28;20045;-74
2022/08/22 08:50:10;;;;;;;7.85;6.07;;;;;;;23.38;98.27;92618.22;5028915;28;20041;-74
2022/08/22 08:53:13;;;;;;;8.38;5.95;;;;;;;22.97;100.00;92622.66;5025293;28;20600;-74
2022/08/22 08:55:49;;;;;;;8.63;6.60;;;;;;;22.69;100.00;92613.13;5026041;28;20052;-74
2022/08/22 08:58:44;;;;;;;8.32;6.10;;;;;;;22.57;100.00;92618.16;5041603;28;20135;-73
2022/08/22 09:01:22;;;;;;;10.40;7.22;;;;;;;22.53;100.00;92615.34;5046895;28;20118;-74
2022/08/22 09:04:18;;;;;;;10.05;6.47;;;;;;;22.50;100.00;92600.22;5046172;28;20042;-74
2022/08/22 09:07:03;;;;;;;9.63;6.22;;;;;;;22.67;100.00;92572.63;5049238;28;20510;-74
2022/08/22 09:09:48;;;;;;;9.40;6.88;;;;;;;23.12;100.00;92603.16;5049088;28;20444;-74
2022/08/22 09:12:31;;;;;;;;;;;;;;;23.23;100.00;92603.63;5049429;28;20547;-74
2022/08/22 09:15:18;;;;;;;8.90;6.43;;;;;;;22.52;99.63;92613.00;5036576;28;19920;-75
2022/08/22 09:18:20;;;;;;;11.52;6.93;;;;;;;22.60;100.00;92601.84;5048771;28;20120;-74
2022/08/22 09:21:22;;;;;;;9.77;7.03;;;;;;;22.99;100.00;92607.41;5048933;28;20045;-74
2022/08/22 09:24:21;;;;;;;9.90;6.68;;;;;;;22.86;100.00;92606.44;5048022;28;20499;-74
2022/08/22 09:26:52;;;;;;;9.68;7.55;;;;;;;22.78;100.00;92605.31;5048003;28;20420;-74
2022/08/22 09:29:37;;;;;;;11.25;7.43;;;;;;;22.49;100.00;92593.44;5048210;28;20052;-74
2022/08/22 09:32:12;;;;;;;10.00;7.20;;;;;;;22.68;100.00;92605.59;5037471;28;20049;-74
2022/08/22 09:34:56;;;;;;;9.57;7.30;;;;;;;23.05;100.00;92600.22;5048549;28;20440;-73
2022/08/22 09:37:34;;;;;;;11.45;7.68;;;;;;;23.16;100.00;92596.25;5048700;28;20052;-74
2022/08/22 09:40:07;;;;;;;11.90;7.80;;;;;;;23.17;100.00;92594.38;5048753;28;20076;-74
2022/08/22 09:42:44;;;;;;;11.15;7.72;;;;;;;23.47;100.00;92602.50;5048470;28;20052;-74
2022/08/22 09:45:46;;;;;;;12.65;7.53;;;;;;;23.73;100.00;92578.16;5048651;28;20107;-74
2022/08/22 09:48:24;;;;;;;12.23;7.32;;;;;;;24.01;97.75;92609.34;5015575;28;20048;-74
2022/08/22 09:51:03;;;;;;;11.05;7.55;;;;;;;24.25;97.70;92597.66;5048750;28;20041;-74
2022/08/22 09:53:48;;;;;;;12.15;9.13;;;;;;;23.90;95.06;92577.41;5049616;28;20052;-74
2022/08/22 09:56:22;;;;;;;10.07;7.50;;;;;;;23.61;97.12;92600.50;5052859;28;20104;-74
2022/08/22 09:59:00;;;;;;;9.95;7.78;;;;;;;23.43;99.58;92591.88;5052446;28;20421;-73
2022/08/22 10:01:33;;;;;;;11.05;7.85;;;;;;;23.72;97.84;92592.34;5052556;28;20584;-74
2022/08/22 10:04:44;;;;;;;12.20;8.13;;;;;;;24.03;97.33;92594.84;5052645;28;20390;-74
2022/08/22 10:07:46;;;;;;;12.43;7.00;;;;;;;23.40;97.46;92591.69;5052762;28;20045;-74
2022/08/22 10:10:33;;;;;;;11.80;7.03;;;;;;;24.01;95.80;92591.75;5052343;28;20049;-74
2022/08/22 10:13:07;;;;;;;10.55;7.60;;;;;;;23.95;95.02;92589.59;5052592;28;20045;-74
2022/08/22 10:15:39;;;;;;;9.85;6.85;;;;;;;24.00;97.51;92568.47;5052124;28;20045;-73
2022/08/22 10:18:25;;;;;;;10.98;7.65;;;;;;;24.31;95.21;92582.50;5043757;28;20891;-73
2022/08/22 10:21:00;;;;;;;;;;;;;;;24.73;93.09;92574.84;5047529;28;20452;-73
2022/08/22 10:23:34;;;;;;;12.73;9.05;;;;;;;24.68;91.73;92573.13;5052266;28;19971;-74
2022/08/22 10:26:13;;;;;;;11.85;7.22;;;;;;;25.12;89.96;92574.88;5051986;28;20049;-74
2022/08/22 10:28:56;;;;;;;9.20;7.38;;;;;;;25.42;89.25;92566.22;5052369;28;20067;-73
2022/08/22 10:31:29;;;;;;;11.75;7.78;;;;;;;25.83;89.07;92562.06;5051968;28;20041;-73
2022/08/22 10:34:09;;;;;;;10.55;8.10;;;;;;;26.10;83.81;92556.63;5051938;28;20049;-73
2022/08/22 10:36:49;;;;;;;9.90;7.53;;;;;;;25.59;85.59;92550.34;5040209;28;20049;-74
2022/08/22 10:39:23;;;;;;;12.30;7.93;;;;;;;25.31;89.15;92558.69;5046081;28;20108;-74
2022/08/22 10:42:08;;;;;;;13.93;7.80;;;;;;;24.77;86.89;92549.47;5051786;28;20044;-73
2022/08/22 10:44:43;;;;;;;10.70;8.30;;;;;;;24.91;90.80;92549.28;5051832;28;20123;-73
2022/08/22 10:47:16;;;;;;;12.30;8.17;;;;;;;25.40;86.95;92552.63;5051701;28;20099;-74
2022/08/22 10:49:50;;;;;;;10.13;8.02;;;;;;;25.17;88.34;92548.41;5051454;28;20064;-74
2022/08/22 10:52:22;;;;;;;10.27;7.82;;;;;;;24.79;87.19;92534.19;5051682;28;20063;-75
2022/08/22 10:54:52;;;;;;;11.38;7.68;;;;;;;24.90;88.50;92539.13;5051300;28;20049;-73
2022/08/22 10:57:41;;;;;;;10.95;8.38;;;;;;;25.37;89.39;92540.09;5051289;28;20129;-74
2022/08/22 11:00:16;;;;;;;11.23;7.88;;;;;;;25.05;87.57;92530.69;5051430;28;20049;-73
2022/08/22 11:02:52;;;;;;;9.13;7.10;;;;;;;25.37;89.40;92532.22;5051407;28;20049;-73
2022/08/22 11:05:37;;;;;;;15.15;8.13;;;;;;;26.06;86.96;92537.28;5050600;28;20144;-73
2022/08/22 11:08:21;;;;;;;12.25;8.55;;;;;;;26.40;87.49;92523.06;5034298;28;20046;-71
2022/08/22 11:11:11;;;;;;;11.45;7.63;;;;;;;26.80;80.02;92534.09;5031537;28;20065;-71
2022/08/22 11:13:43;;;;;;;12.65;8.30;;;;;;;27.31;85.56;92520.56;5031719;28;20409;-70
2022/08/22 11:16:24;;;;;;;9.35;7.03;;;;;;;27.64;78.85;92532.09;5049726;28;20517;-71
2022/08/22 11:19:15;;;;;;;10.10;7.15;;;;;;;27.18;77.75;92525.09;5051385;28;20060;-71
2022/08/22 11:21:56;;;;;;;10.13;7.70;;;;;;;26.81;83.13;92517.94;5039379;28;20041;-71
2022/08/22 11:24:55;;;;;;;10.75;7.68;;;;;;;27.08;81.67;92522.91;5050961;28;20136;-71
2022/08/22 11:27:33;;;;;;;10.00;7.68;;;;;;;27.60;79.87;92505.59;5051015;28;20103;-72
2022/08/22 11:30:05;;;;;;;10.35;6.90;;;;;;;27.82;78.21;92515.97;5049129;28;20479;-72
2022/08/22 11:32:36;;;;;;;10.63;7.30;;;;;;;28.29;77.69;92517.22;5051172;28;20154;-72
2022/08/22 11:35:07;;;;;;;8.60;7.20;;;;;;;28.18;73.51;92518.81;5050858;28;20049;-72
2022/08/22 11:37:47;;;;;;;10.77;7.50;;;;;;;27.34;73.53;92514.66;5051121;28;20166;-72
2022/08/22 11:40:36;;;;;;;12.93;7.45;;;;;;;27.34;75.45;92490.91;5033065;28;20049;-72
2022/08/22 11:43:20;;;;;;;12.50;7.07;;;;;;;27.91;75.79;92505.28;5048548;28;20079;-72
2022/08/22 11:45:51;;;;;;;10.50;7.28;;;;;;;27.84;72.67;92505.84;5050443;28;20048;-72
2022/08/22 11:48:23;;;;;;;10.38;6.32;;;;;;;27.88;72.21;92496.94;5050271;28;20107;-73
2022/08/22 11:50:57;;;;;;;10.07;7.80;;;;;;;27.56;75.42;92488.09;5050177;28;20548;-72
2022/08/22 11:53:32;;;;;;;11.85;7.75;;;;;;;28.18;75.54;92487.88;5050380;28;20106;-72
2022/08/22 11:56:14;;;;;;;7.60;6.10;;;;;;;27.31;72.67;92491.56;5041489;28;20553;-72
2022/08/22 11:58:54;;;;;;;9.88;7.07;;;;;;;27.78;73.67;92492.13;5041701;28;20056;-72
2022/08/22 12:01:28;;;;;;;7.88;6.25;;;;;;;28.07;71.98;92495.53;5049538;28;20455;-72
2022/08/22 12:04:08;;;;;;;10.27;6.95;;;;;;;28.04;75.56;92490.91;5050305;28;20053;-72
2022/08/22 12:06:51;;;;;;;9.80;8.27;;;;;;;26.73;78.81;92491.69;5050029;28;20493;-72
2022/08/22 12:09:30;;;;;;;9.43;6.65;;;;;;;26.85;81.11;92473.28;5050137;28;20045;-75
2022/08/22 12:12:18;;;;;;;12.20;9.18;;;;;;;25.79;82.06;92471.75;5050330;28;20053;-76
2022/08/22 12:14:53;;;;;;;19.48;12.60;;;;;;;26.45;81.68;92481.78;5050267;28;20041;-75
2022/08/22 12:17:48;;;;;;;11.38;8.07;;;;;;;26.57;80.14;92483.69;5049219;28;20099;-75